Time;durP1;ratioP1;P1;durP2;ratioP2;P2;SDS_P1;SDS_P2;PMS_P1;PMS_P2;Temp;Humidity;BMP_temperature;BMP_pressure;BME280_temperature;BME280_humidity;BME280_pressure;Samples;Min_cycle;Max_cycle;Signal;HPM_P1;HPM_P2
2023/12/29 00:00:13;;;;;;;;;;;;;;;9.72;66.65;98346.87;4459097;32;19972;-79
2023/12/29 00:02:40;;;;;;;;;;;;;;;9.73;66.92;98351.12;4472675;32;20040;-79
2023/12/29 00:05:07;;;;;;;;;;;;;;;10.13;64.54;98350.56;4472810;32;19980;-79
2023/12/29 00:07:34;;;;;;;;;;;;;;;10.49;63.34;98345.81;4473190;32;20044;-79
2023/12/29 00:10:01;;;;;;;;;;;;;;;10.55;63.90;98348.19;4472611;32;19987;-79
2023/12/29 00:12:28;;;;;;;;;;;;;;;10.06;64.84;98339.63;4473016;32;19968;-79
2023/12/29 00:14:54;;;;;;;;;;;;;;;10.37;64.50;98339.37;4472877;32;20397;-79
2023/12/29 00:17:21;;;;;;;;;;;;;;;10.62;63.46;98334.13;4472728;32;19972;-79
2023/12/29 00:19:48;;;;;;;;;;;;;;;11.07;61.89;98342.75;4472999;32;19982;-79
2023/12/29 00:22:15;;;;;;;;;;;;;;;11.06;61.58;98331.56;4473006;32;19964;-79
2023/12/29 00:24:42;;;;;;;;;;;;;;;11.35;60.90;98339.87;4472385;32;20332;-79
2023/12/29 00:27:09;;;;;;;;;;;;;;;11.39;60.64;98328.53;4472769;32;20023;-79
2023/12/29 00:29:35;;;;;;;;;;;;;;;11.38;60.82;98329.41;4473007;32;20024;-79
2023/12/29 00:32:02;;;;;;;;;;;;;;;11.57;60.46;98328.56;4458574;32;19980;-79
2023/12/29 00:34:30;;;;;;;;;;;;;;;11.72;59.66;98329.69;4472743;32;20324;-79
2023/12/29 00:36:57;;;;;;;;;;;;;;;11.30;60.64;98325.41;4472364;32;20010;-79
2023/12/29 00:39:28;;;;;;;;;;;;;;;10.78;61.73;98323.22;4472906;32;19968;-78
2023/12/29 00:41:58;;;;;;;;;;;;;;;10.18;65.55;98327.19;4472960;32;20285;-78
2023/12/29 00:44:25;;;;;;;;;;;;;;;10.62;64.15;98323.81;4472329;32;19976;-79
2023/12/29 00:46:51;;;;;;;;;;;;;;;10.40;65.14;98323.78;4458637;32;20399;-79
2023/12/29 00:49:18;;;;;;;;;;;;;;;10.46;64.79;98319.31;4472858;32;19964;-78
2023/12/29 00:51:46;;;;;;;;;;;;;;;10.59;64.13;98323.94;4472460;32;19973;-79
2023/12/29 00:54:13;;;;;;;;;;;;;;;10.50;64.58;98329.44;4472627;32;19976;-78
2023/12/29 00:56:40;;;;;;;;;;;;;;;10.62;64.44;98334.13;4472625;32;19982;-79
2023/12/29 00:59:07;;;;;;;;;;;;;;;10.70;64.59;98339.84;4472320;32;20049;-78
2023/12/29 01:01:34;;;;;;;;;;;;;;;10.55;63.40;98335.28;4472643;32;19976;-79
2023/12/29 01:04:02;;;;;;;;;;;;;;;9.86;64.84;98326.63;4472275;32;19968;-79
2023/12/29 01:06:29;;;;;;;;;;;;;;;10.31;64.61;98329.28;4472170;32;19991;-79
2023/12/29 01:08:55;;;;;;;;;;;;;;;10.77;63.29;98324.13;4472600;32;19984;-78
2023/12/29 01:11:22;;;;;;;;;;;;;;;10.84;61.67;98328.97;4472821;32;19995;-79
2023/12/29 01:13:49;;;;;;;;;;;;;;;10.51;62.56;98328.53;4472186;32;19980;-78
2023/12/29 01:16:16;;;;;;;;;;;;;;;9.78;65.55;98329.47;4458466;32;19996;-78
2023/12/29 01:18:42;;;;;;;;;;;;;;;9.59;66.42;98320.69;4472693;32;19996;-78
2023/12/29 01:21:10;;;;;;;;;;;;;;;10.14;65.71;98316.16;4472318;32;19983;-79
2023/12/29 01:23:36;;;;;;;;;;;;;;;9.73;68.25;98318.47;4458262;32;20293;-78
2023/12/29 01:26:03;;;;;;;;;;;;;;;9.45;69.16;98310.84;4472149;32;20330;-78
2023/12/29 01:28:30;;;;;;;;;;;;;;;8.95;71.78;98305.66;4472642;32;19981;-78
2023/12/29 01:30:56;;;;;;;;;;;;;;;9.12;70.66;98306.81;4472539;32;20306;-78
2023/12/29 01:33:23;;;;;;;;;;;;;;;9.56;69.70;98306.16;4472098;32;19968;-78
2023/12/29 01:35:50;;;;;;;;;;;;;;;9.51;69.67;98305.50;4472337;32;19982;-78
2023/12/29 01:38:16;;;;;;;;;;;;;;;9.71;68.86;98304.81;4472568;32;20331;-79
2023/12/29 01:40:44;;;;;;;;;;;;;;;9.80;68.05;98306.22;4458084;32;20347;-78
2023/12/29 01:43:11;;;;;;;;;;;;;;;9.96;67.49;98302.19;4472439;32;19976;-78
2023/12/29 01:45:38;;;;;;;;;;;;;;;9.98;67.33;98300.41;4457615;32;20376;-79
2023/12/29 01:48:21;;;;;;;;;;;;;;;10.05;66.69;98294.13;4472099;32;19987;-79
2023/12/29 01:50:48;;;;;;;;;;;;;;;10.61;64.26;98295.50;4472236;32;19972;-78
2023/12/29 01:53:15;;;;;;;;;;;;;;;10.37;64.37;98298.12;4472252;32;20274;-79
2023/12/29 01:55:42;;;;;;;;;;;;;;;10.89;62.46;98303.00;4457868;32;20059;-79
2023/12/29 01:58:09;;;;;;;;;;;;;;;11.06;61.90;98294.56;4458445;32;19968;-78
2023/12/29 02:00:35;;;;;;;;;;;;;;;10.50;63.18;98288.16;4472337;32;19983;-79
2023/12/29 02:03:02;;;;;;;;;;;;;;;10.38;63.62;98286.91;4471727;32;20040;-78
2023/12/29 02:05:29;;;;;;;;;;;;;;;10.31;63.51;98288.03;4472143;32;19992;-78
2023/12/29 02:07:56;;;;;;;;;;;;;;;10.04;64.03;98296.75;4458316;32;19986;-78
2023/12/29 02:10:23;;;;;;;;;;;;;;;9.44;65.49;98295.44;4472088;32;19968;-79
2023/12/29 02:12:53;;;;;;;;;;;;;;;9.45;66.74;98292.81;4472129;32;19972;-79
2023/12/29 02:15:20;;;;;;;;;;;;;;;9.96;64.86;98296.19;4458174;32;20018;-78
2023/12/29 02:17:57;;;;;;;;;;;;;;;10.13;64.88;98299.84;4472237;32;20251;-79
2023/12/29 02:20:24;;;;;;;;;;;;;;;10.34;63.88;98294.81;4458271;32;20463;-78
2023/12/29 02:22:51;;;;;;;;;;;;;;;10.10;64.79;98294.81;4457740;32;19976;-78
2023/12/29 02:25:18;;;;;;;;;;;;;;;10.03;65.55;98295.94;4471945;32;19980;-78
2023/12/29 02:28:05;;;;;;;;;;;;;;;10.18;64.87;98291.09;4472182;32;20367;-78
2023/12/29 02:30:37;;;;;;;;;;;;;;;9.39;68.12;98289.62;4471585;32;20021;-78
2023/12/29 02:33:05;;;;;;;;;;;;;;;9.58;67.83;98282.97;4471996;32;19984;-79
2023/12/29 02:35:33;;;;;;;;;;;;;;;9.75;67.14;98285.75;4471833;32;20041;-78
2023/12/29 02:37:59;;;;;;;;;;;;;;;9.86;66.56;98282.81;4471614;32;19972;-78
2023/12/29 02:40:26;;;;;;;;;;;;;;;10.36;64.30;98287.88;4472030;32;19968;-79
2023/12/29 02:42:53;;;;;;;;;;;;;;;9.78;66.69;98287.38;4457975;32;19971;-79
2023/12/29 02:45:20;;;;;;;;;;;;;;;10.12;65.63;98276.72;4471243;32;19992;-79
2023/12/29 02:47:47;;;;;;;;;;;;;;;10.59;63.33;98282.66;4472002;32;20003;-79
2023/12/29 02:50:13;;;;;;;;;;;;;;;10.58;63.55;98280.97;4457668;32;20314;-79
2023/12/29 02:52:40;;;;;;;;;;;;;;;10.27;64.38;98286.47;4471853;32;19976;-79
2023/12/29 02:55:07;;;;;;;;;;;;;;;10.94;60.92;98283.00;4471627;32;19975;-79
2023/12/29 02:57:35;;;;;;;;;;;;;;;10.56;61.08;98274.19;4470310;32;20326;-79
2023/12/29 03:00:03;;;;;;;;;;;;;;;9.87;63.51;98276.75;4471739;32;19982;-79
2023/12/29 03:02:30;;;;;;;;;;;;;;;9.82;64.15;98264.03;4471712;32;20016;-79
2023/12/29 03:04:57;;;;;;;;;;;;;;;10.27;63.14;98265.00;4470965;32;19994;-78
2023/12/29 03:07:23;;;;;;;;;;;;;;;10.56;62.27;98267.31;4471640;32;20051;-79
2023/12/29 03:09:50;;;;;;;;;;;;;;;10.59;62.21;98258.59;4471681;32;19984;-79
2023/12/29 03:12:17;;;;;;;;;;;;;;;9.98;63.42;98253.16;4471197;32;20259;-78
2023/12/29 03:14:44;;;;;;;;;;;;;;;10.18;63.10;98258.41;4471552;32;19996;-78
2023/12/29 03:17:11;;;;;;;;;;;;;;;10.58;61.75;98260.34;4471295;32;19976;-78
2023/12/29 03:19:38;;;;;;;;;;;;;;;10.34;62.15;98248.41;4471247;32;19995;-79
2023/12/29 03:22:04;;;;;;;;;;;;;;;9.71;63.55;98244.72;4471365;32;19992;-78
2023/12/29 03:24:31;;;;;;;;;;;;;;;10.25;62.35;98246.16;4471235;32;20040;-79
2023/12/29 03:26:58;;;;;;;;;;;;;;;10.24;63.17;98247.06;4470846;32;20055;-79
2023/12/29 03:29:25;;;;;;;;;;;;;;;10.17;63.04;98233.53;4471464;32;20338;-79
2023/12/29 03:31:51;;;;;;;;;;;;;;;10.08;63.89;98242.44;4471341;32;19972;-78
2023/12/29 03:34:19;;;;;;;;;;;;;;;9.73;66.22;98241.19;4470845;32;19976;-79
2023/12/29 03:36:46;;;;;;;;;;;;;;;9.91;65.30;98231.94;4471008;32;19972;-78
2023/12/29 03:39:13;;;;;;;;;;;;;;;9.96;64.64;98227.44;4470985;32;19978;-78
2023/12/29 03:41:40;;;;;;;;;;;;;;;10.38;64.27;98229.31;4471270;32;19987;-78
2023/12/29 03:44:07;;;;;;;;;;;;;;;10.27;64.96;98236.62;4471066;32;20023;-78
2023/12/29 03:46:33;;;;;;;;;;;;;;;10.12;65.97;98241.44;4470727;32;20037;-78
2023/12/29 03:49:00;;;;;;;;;;;;;;;9.79;67.72;98242.72;4471152;32;19978;-78
2023/12/29 03:51:27;;;;;;;;;;;;;;;10.38;65.70;98248.22;4470901;32;20003;-78
2023/12/29 03:53:53;;;;;;;;;;;;;;;10.68;65.16;98247.91;4470597;32;20048;-79
2023/12/29 03:56:20;;;;;;;;;;;;;;;10.48;65.79;98253.84;4470843;32;20047;-78
2023/12/29 03:58:47;;;;;;;;;;;;;;;10.72;63.55;98250.28;4470981;32;20341;-79
2023/12/29 04:01:14;;;;;;;;;;;;;;;11.00;62.98;98247.44;4456455;32;19988;-78
2023/12/29 04:03:41;;;;;;;;;;;;;;;10.61;63.95;98255.03;4470453;32;19987;-78
2023/12/29 04:06:08;;;;;;;;;;;;;;;11.23;61.67;98261.97;4470638;32;19988;-78
2023/12/29 04:08:35;;;;;;;;;;;;;;;10.70;62.75;98264.16;4456393;32;19979;-79
2023/12/29 04:11:02;;;;;;;;;;;;;;;11.24;60.67;98263.66;4459079;32;20045;-79
2023/12/29 04:13:29;;;;;;;;;;;;;;;10.87;61.24;98266.09;4459060;32;20339;-79
2023/12/29 04:15:56;;;;;;;;;;;;;;;11.33;59.34;98269.34;4472466;32;19987;-79
2023/12/29 04:18:23;;;;;;;;;;;;;;;11.28;57.86;98269.56;4473084;32;19964;-79
2023/12/29 04:20:50;;;;;;;;;;;;;;;11.63;56.72;98268.03;4459064;32;20023;-79
2023/12/29 04:23:16;;;;;;;;;;;;;;;11.33;58.14;98264.19;4472625;32;19980;-79
2023/12/29 04:25:43;;;;;;;;;;;;;;;11.46;57.43;98257.56;4472816;32;20653;-79
2023/12/29 04:28:10;;;;;;;;;;;;;;;11.22;58.93;98257.72;4472934;32;19956;-79
2023/12/29 04:30:37;;;;;;;;;;;;;;;11.11;58.86;98259.91;4458576;32;19980;-79
2023/12/29 04:33:04;;;;;;;;;;;;;;;11.65;58.06;98258.47;4473001;32;20292;-79
2023/12/29 04:35:30;;;;;;;;;;;;;;;11.38;58.87;98252.75;4472371;32;19973;-79
2023/12/29 04:37:58;;;;;;;;;;;;;;;11.70;58.04;98248.78;4472841;32;20003;-79
2023/12/29 04:40:24;;;;;;;;;;;;;;;12.13;56.56;98245.12;4472778;32;19990;-79
2023/12/29 04:42:51;;;;;;;;;;;;;;;12.24;56.28;98248.97;4472468;32;19976;-79
2023/12/29 04:45:18;;;;;;;;;;;;;;;11.11;59.96;98244.41;4472568;32;20480;-79
2023/12/29 04:47:44;;;;;;;;;;;;;;;11.50;59.23;98241.06;4472858;32;19976;-78
2023/12/29 04:50:11;;;;;;;;;;;;;;;11.08;60.52;98243.72;4472485;32;19998;-79
2023/12/29 04:52:38;;;;;;;;;;;;;;;10.33;63.29;98237.25;4472854;32;19976;-79
2023/12/29 04:55:05;;;;;;;;;;;;;;;9.98;65.29;98241.09;4472597;32;20028;-78
2023/12/29 04:57:31;;;;;;;;;;;;;;;10.19;64.87;98247.19;4472368;32;19980;-78
2023/12/29 04:59:58;;;;;;;;;;;;;;;10.70;63.41;98252.09;4472751;32;20307;-79
2023/12/29 05:02:25;;;;;;;;;;;;;;;11.13;61.59;98250.34;4458719;32;19976;-78
2023/12/29 05:04:52;;;;;;;;;;;;;;;11.12;61.78;98243.50;4471803;32;19968;-79
2023/12/29 05:07:18;;;;;;;;;;;;;;;11.11;61.67;98241.84;4472678;32;20040;-78
2023/12/29 05:09:45;;;;;;;;;;;;;;;11.35;60.75;98250.28;4472655;32;20034;-78
2023/12/29 05:12:12;;;;;;;;;;;;;;;11.44;60.60;98251.66;4472287;32;20390;-79
2023/12/29 05:14:39;;;;;;;;;;;;;;;11.27;60.97;98250.63;4472548;32;19983;-78
2023/12/29 05:17:05;;;;;;;;;;;;;;;11.04;61.89;98244.72;4472440;32;19960;-78
2023/12/29 05:19:32;;;;;;;;;;;;;;;10.60;62.99;98247.37;4472434;32;20065;-78
2023/12/29 05:21:59;;;;;;;;;;;;;;;10.91;61.33;98255.56;4471837;32;19972;-79
2023/12/29 05:24:26;;;;;;;;;;;;;;;11.05;60.06;98262.72;4472380;32;19964;-79
2023/12/29 05:26:53;;;;;;;;;;;;;;;11.11;58.56;98265.06;4472389;32;19964;-78
2023/12/29 05:29:19;;;;;;;;;;;;;;;10.16;60.56;98255.06;4472629;32;20026;-78
2023/12/29 05:31:46;;;;;;;;;;;;;;;10.27;59.07;98252.94;4472232;32;20252;-78
2023/12/29 05:34:13;;;;;;;;;;;;;;;9.95;59.79;98253.28;4472448;32;19968;-78
2023/12/29 05:36:40;;;;;;;;;;;;;;;9.69;60.86;98256.81;4472382;32;19990;-79
2023/12/29 05:39:07;;;;;;;;;;;;;;;9.75;60.55;98260.00;4472286;32;19987;-79
2023/12/29 05:41:34;;;;;;;;;;;;;;;9.50;60.71;98259.19;4472552;32;20024;-79
2023/12/29 05:44:01;;;;;;;;;;;;;;;10.18;58.97;98263.56;4472311;32;19972;-79
2023/12/29 05:46:27;;;;;;;;;;;;;;;10.49;57.34;98262.44;4471954;32;19956;-79
2023/12/29 05:48:54;;;;;;;;;;;;;;;9.16;60.09;98262.94;4472518;32;20003;-79
2023/12/29 05:51:21;;;;;;;;;;;;;;;8.83;61.47;98267.47;4472382;32;19976;-79
2023/12/29 05:53:48;;;;;;;;;;;;;;;10.61;57.20;98269.69;4471831;32;20054;-79
2023/12/29 05:56:15;;;;;;;;;;;;;;;10.21;57.88;98260.03;4472178;32;19960;-79
2023/12/29 05:58:42;;;;;;;;;;;;;;;10.23;58.08;98272.03;4472375;32;19972;-79
2023/12/29 06:01:09;;;;;;;;;;;;;;;10.32;58.08;98276.84;4472062;32;19980;-79
2023/12/29 06:03:36;;;;;;;;;;;;;;;9.49;59.81;98273.81;4457929;32;19988;-79
2023/12/29 06:06:03;;;;;;;;;;;;;;;9.81;58.13;98271.84;4472218;32;20561;-79
2023/12/29 06:08:30;;;;;;;;;;;;;;;9.27;59.63;98267.72;4471987;32;19988;-79
2023/12/29 06:10:56;;;;;;;;;;;;;;;9.22;59.15;98267.84;4472165;32;20025;-78
2023/12/29 06:13:23;;;;;;;;;;;;;;;9.54;57.99;98269.31;4472254;32;19988;-78
2023/12/29 06:15:50;;;;;;;;;;;;;;;9.37;59.75;98270.81;4471861;32;19968;-78
2023/12/29 06:18:17;;;;;;;;;;;;;;;9.26;61.06;98273.75;4472090;32;19972;-79
2023/12/29 06:20:43;;;;;;;;;;;;;;;9.19;61.37;98275.69;4457927;32;19996;-78
2023/12/29 06:23:10;;;;;;;;;;;;;;;8.84;62.98;98281.16;4472234;32;19999;-78
2023/12/29 06:25:39;;;;;;;;;;;;;;;8.76;61.55;98275.41;4471977;32;20013;-78
2023/12/29 06:28:06;;;;;;;;;;;;;;;8.64;62.59;98274.91;4471841;32;19980;-78
2023/12/29 06:30:33;;;;;;;;;;;;;;;9.70;60.79;98284.25;4472105;32;20364;-78
2023/12/29 06:33:00;;;;;;;;;;;;;;;9.42;61.18;98280.06;4471920;32;20250;-78
2023/12/29 06:35:27;;;;;;;;;;;;;;;9.51;59.90;98289.22;4471559;32;19972;-78
2023/12/29 06:37:54;;;;;;;;;;;;;;;9.07;61.47;98290.72;4472015;32;20025;-78
2023/12/29 06:40:21;;;;;;;;;;;;;;;8.80;61.85;98284.69;4471990;32;19988;-79
2023/12/29 06:42:48;;;;;;;;;;;;;;;9.63;60.42;98283.63;4471483;32;19988;-78
2023/12/29 06:45:15;;;;;;;;;;;;;;;8.67;63.28;98279.94;4471808;32;19972;-79
2023/12/29 06:47:42;;;;;;;;;;;;;;;8.17;65.23;98284.00;4471982;32;20299;-78
2023/12/29 06:50:12;;;;;;;;;;;;;;;8.70;62.93;98287.56;4471548;32;20025;-78
2023/12/29 06:52:39;;;;;;;;;;;;;;;9.18;61.14;98299.75;4471890;32;19968;-78
2023/12/29 06:55:07;;;;;;;;;;;;;;;8.88;62.37;98290.44;4471698;32;20291;-78
2023/12/29 06:57:34;;;;;;;;;;;;;;;9.04;62.42;98293.34;4471597;32;20307;-78
2023/12/29 07:00:01;;;;;;;;;;;;;;;9.04;62.32;98289.09;4471734;32;20026;-78
2023/12/29 07:02:28;;;;;;;;;;;;;;;9.74;60.39;98281.50;4471692;32;19986;-78
2023/12/29 07:04:54;;;;;;;;;;;;;;;9.86;60.55;98290.53;4471092;32;19980;-78
2023/12/29 07:07:21;;;;;;;;;;;;;;;9.73;60.84;98297.88;4471593;32;20022;-79
2023/12/29 07:09:48;;;;;;;;;;;;;;;8.75;65.23;98294.31;4471397;32;20037;-79
2023/12/29 07:12:15;;;;;;;;;;;;;;;8.76;68.42;98301.13;4471677;32;20426;-79
2023/12/29 07:14:42;;;;;;;;;;;;;;;10.00;66.65;98303.78;4471316;32;20012;-79
2023/12/29 07:17:09;;;;;;;;;;;;;;;10.48;69.00;98305.44;4470989;32;19968;-79
2023/12/29 07:19:38;;;;;;;;;;;;;;;11.53;64.82;98305.53;4471571;32;20300;-79
2023/12/29 07:22:08;;;;;;;;;;;;;;;12.29;63.11;98307.34;4471535;32;20317;-79
2023/12/29 07:24:35;;;;;;;;;;;;;;;11.82;59.41;98312.91;4470903;32;19990;-79
2023/12/29 07:27:03;;;;;;;;;;;;;;;12.92;57.64;98310.44;4471258;32;19992;-79
2023/12/29 07:29:29;;;;;;;;;;;;;;;13.96;55.80;98310.44;4471534;32;20036;-79
2023/12/29 07:31:56;;;;;;;;;;;;;;;14.36;51.34;98308.34;4456859;32;19977;-79
2023/12/29 07:34:23;;;;;;;;;;;;;;;14.20;49.71;98308.31;4471235;32;19995;-79
2023/12/29 07:36:50;;;;;;;;;;;;;;;14.28;49.22;98306.16;4471081;32;19972;-79
2023/12/29 07:39:17;;;;;;;;;;;;;;;15.01;47.31;98316.87;4471077;32;20029;-79
2023/12/29 07:41:44;;;;;;;;;;;;;;;15.53;47.11;98325.13;4471218;32;19968;-79
2023/12/29 07:44:11;;;;;;;;;;;;;;;16.20;45.59;98328.94;4471556;32;19961;-79
2023/12/29 07:46:39;;;;;;;;;;;;;;;16.50;42.31;98338.41;4472690;32;20023;-79
2023/12/29 07:49:06;;;;;;;;;;;;;;;16.41;40.17;98344.19;4473356;32;20487;-79
2023/12/29 07:51:34;;;;;;;;;;;;;;;16.17;41.43;98352.56;4473195;32;19988;-79
2023/12/29 07:54:00;;;;;;;;;;;;;;;16.41;41.86;98359.81;4472694;32;19972;-80
2023/12/29 07:56:27;;;;;;;;;;;;;;;16.78;40.52;98354.00;4472934;32;19972;-79
2023/12/29 07:58:54;;;;;;;;;;;;;;;17.01;39.96;98362.13;4472938;32;20075;-79
2023/12/29 08:01:20;;;;;;;;;;;;;;;16.07;41.26;98363.63;4473077;32;19964;-79
2023/12/29 08:03:47;;;;;;;;;;;;;;;16.32;41.21;98350.78;4472806;32;20029;-80
2023/12/29 08:06:14;;;;;;;;;;;;;;;15.91;42.08;98351.50;4472652;32;19972;-80
2023/12/29 08:08:41;;;;;;;;;;;;;;;15.50;42.98;98346.09;4473102;32;20511;-79
2023/12/29 08:11:15;;;;;;;;;;;;;;;14.81;44.53;98340.53;4473074;32;20305;-79
2023/12/29 08:13:43;;;;;;;;;;;;;;;14.69;45.01;98340.28;4472584;32;20285;-79
2023/12/29 08:16:10;;;;;;;;;;;;;;;14.89;45.51;98346.16;4472974;32;19991;-79
2023/12/29 08:18:36;;;;;;;;;;;;;;;15.84;44.69;98354.56;4473089;32;19984;-80
2023/12/29 08:21:03;;;;;;;;;;;;;;;16.78;42.74;98354.00;4472491;32;20023;-80
2023/12/29 08:23:30;;;;;;;;;;;;;;;17.28;42.05;98362.97;4458865;32;20008;-80
2023/12/29 08:25:58;;;;;;;;;;;;;;;17.65;41.61;98355.31;4472844;32;20567;-80
2023/12/29 08:28:24;;;;;;;;;;;;;;;17.68;40.60;98360.34;4472745;32;20011;-80
2023/12/29 08:30:52;;;;;;;;;;;;;;;17.80;41.05;98367.38;4472950;32;20043;-81
2023/12/29 08:33:19;;;;;;;;;;;;;;;18.25;40.39;98362.59;4472839;32;20363;-80
2023/12/29 08:35:46;;;;;;;;;;;;;;;17.53;40.15;98363.97;4472549;32;20031;-80
2023/12/29 08:38:12;;;;;;;;;;;;;;;18.59;38.58;98363.69;4472985;32;19980;-81
2023/12/29 08:40:40;;;;;;;;;;;;;;;18.70;38.48;98366.41;4472840;32;20326;-80
2023/12/29 08:43:07;;;;;;;;;;;;;;;18.44;39.62;98373.44;4472531;32;19986;-81
2023/12/29 08:45:33;;;;;;;;;;;;;;;18.17;40.00;98362.28;4472450;32;20030;-81
2023/12/29 08:48:00;;;;;;;;;;;;;;;18.17;40.60;98365.72;4472478;32;20250;-81
2023/12/29 08:50:27;;;;;;;;;;;;;;;18.21;40.20;98364.59;4472869;32;20017;-81
2023/12/29 08:52:54;;;;;;;;;;;;;;;18.79;40.22;98370.97;4472792;32;19980;-81
2023/12/29 08:55:20;;;;;;;;;;;;;;;19.34;39.60;98376.63;4471546;32;20008;-81
2023/12/29 08:57:47;;;;;;;;;;;;;;;20.33;37.26;98378.81;4472526;32;20457;-81
2023/12/29 09:00:14;;;;;;;;;;;;;;;20.40;37.77;98377.37;4472715;32;20287;-81
2023/12/29 09:02:41;;;;;;;;;;;;;;;20.62;37.43;98368.72;4472466;32;19995;-81
2023/12/29 09:05:08;;;;;;;;;;;;;;;21.09;37.09;98375.44;4472460;32;20048;-81
2023/12/29 09:07:35;;;;;;;;;;;;;;;21.14;36.21;98378.50;4472780;32;20051;-81
2023/12/29 09:10:03;;;;;;;;;;;;;;;21.24;36.29;98378.59;4472206;32;19999;-81
2023/12/29 09:12:29;;;;;;;;;;;;;;;21.36;36.33;98377.63;4472642;32;19994;-82
2023/12/29 09:14:56;;;;;;;;;;;;;;;21.98;35.18;98389.16;4472562;32;19986;-81
2023/12/29 09:17:23;;;;;;;;;;;;;;;21.39;35.92;98387.06;4472236;32;19999;-81
2023/12/29 09:19:49;;;;;;;;;;;;;;;21.01;36.26;98381.28;4472576;32;19997;-81
2023/12/29 09:22:29;;;;;;;;;;;;;;;20.82;37.17;98378.47;4472665;32;19964;-81
2023/12/29 09:24:55;;;;;;;;;;;;;;;19.69;39.93;98370.63;4472011;32;19999;-80
2023/12/29 09:27:22;;;;;;;;;;;;;;;18.74;41.85;98370.50;4472584;32;20251;-80
2023/12/29 09:29:49;;;;;;;;;;;;;;;17.57;44.54;98365.44;4472648;32;19987;-80
2023/12/29 09:32:16;;;;;;;;;;;;;;;17.63;45.15;98358.03;4472225;32;20051;-81
2023/12/29 09:34:43;;;;;;;;;;;;;;;18.39;43.75;98361.63;4472328;32;19976;-80
2023/12/29 09:37:09;;;;;;;;;;;;;;;18.79;42.54;98357.91;4472003;32;19995;-81
2023/12/29 09:39:36;;;;;;;;;;;;;;;19.34;41.77;98358.31;4472548;32;19968;-80
2023/12/29 09:42:03;;;;;;;;;;;;;;;19.28;41.52;98349.16;4472425;32;19968;-80
2023/12/29 09:44:31;;;;;;;;;;;;;;;19.28;41.20;98354.37;4471984;32;20308;-80
2023/12/29 09:47:00;;;;;;;;;;;;;;;18.95;41.78;98351.59;4458257;32;20348;-80
2023/12/29 09:49:27;;;;;;;;;;;;;;;18.84;42.47;98347.16;4472440;32;19987;-80
2023/12/29 09:51:54;;;;;;;;;;;;;;;18.84;43.13;98344.53;4471990;32;19998;-80
2023/12/29 09:54:21;;;;;;;;;;;;;;;19.16;42.07;98347.44;4458292;32;20019;-80
2023/12/29 09:56:49;;;;;;;;;;;;;;;18.65;42.42;98338.94;4472211;32;19972;-80
2023/12/29 09:59:16;;;;;;;;;;;;;;;18.51;42.93;98329.44;4471889;32;19977;-80
2023/12/29 10:01:43;;;;;;;;;;;;;;;18.74;41.80;98330.44;4472270;32;19968;-80
2023/12/29 10:04:11;;;;;;;;;;;;;;;18.04;42.48;98328.34;4472057;32;19996;-80
2023/12/29 10:06:38;;;;;;;;;;;;;;;17.86;42.96;98327.84;4471261;32;19980;-80
2023/12/29 10:09:05;;;;;;;;;;;;;;;17.68;42.96;98322.97;4458243;32;20330;-80
2023/12/29 10:11:34;;;;;;;;;;;;;;;16.73;44.32;98319.59;4458229;32;20294;-80
2023/12/29 10:14:03;;;;;;;;;;;;;;;16.51;45.42;98318.41;4457645;32;20007;-80
2023/12/29 10:16:42;;;;;;;;;;;;;;;16.19;45.83;98314.25;4458087;32;20312;-80
2023/12/29 10:19:28;;;;;;;;;;;;;;;15.91;46.03;98317.69;4458034;32;20241;-80
2023/12/29 10:21:58;;;;;;;;;;;;;;;16.16;45.91;98305.78;4472151;32;20036;-80
2023/12/29 10:24:25;;;;;;;;;;;;;;;16.18;45.17;98288.31;4458257;32;19988;-80
2023/12/29 10:26:54;;;;;;;;;;;;;;;16.52;44.83;98283.59;4471616;32;20057;-80
2023/12/29 10:29:21;;;;;;;;;;;;;;;17.16;43.57;98290.75;4458296;32;19968;-80
2023/12/29 10:31:47;;;;;;;;;;;;;;;17.51;42.97;98291.00;4458147;32;20000;-80
2023/12/29 10:34:27;;;;;;;;;;;;;;;18.36;41.05;98284.31;4471732;32;20002;-80
2023/12/29 10:36:55;;;;;;;;;;;;;;;18.50;40.67;98285.94;4458855;32;20000;-80
2023/12/29 10:39:22;;;;;;;;;;;;;;;18.54;41.56;98278.75;4471990;32;20335;-80
2023/12/29 10:41:49;;;;;;;;;;;;;;;18.74;41.45;98280.78;4457673;32;19999;-80
2023/12/29 10:44:16;;;;;;;;;;;;;;;18.61;41.52;98269.50;4457849;32;20424;-80
2023/12/29 10:46:43;;;;;;;;;;;;;;;18.37;41.51;98278.13;4471711;32;20659;-80
2023/12/29 10:49:10;;;;;;;;;;;;;;;18.39;41.10;98267.56;4471466;32;19972;-80
2023/12/29 10:51:37;;;;;;;;;;;;;;;18.26;41.07;98267.62;4471905;32;19964;-80
2023/12/29 10:54:04;;;;;;;;;;;;;;;18.27;41.57;98258.00;4471762;32;19972;-79
2023/12/29 10:56:31;;;;;;;;;;;;;;;18.78;40.68;98261.31;4471447;32;20225;-80
2023/12/29 10:59:04;;;;;;;;;;;;;;;18.85;40.41;98252.09;4471839;32;19986;-80
2023/12/29 11:01:32;;;;;;;;;;;;;;;19.09;40.00;98252.06;4457431;32;19999;-80
2023/12/29 11:04:02;;;;;;;;;;;;;;;18.97;39.76;98243.34;4471426;32;19984;-79
2023/12/29 11:06:30;;;;;;;;;;;;;;;18.72;40.83;98233.84;4457733;32;20358;-80
2023/12/29 11:08:57;;;;;;;;;;;;;;;18.38;41.55;98232.78;4457357;32;20331;-79
2023/12/29 11:11:23;;;;;;;;;;;;;;;18.19;41.05;98232.44;4471660;32;20481;-79
2023/12/29 11:13:50;;;;;;;;;;;;;;;18.21;41.67;98226.16;4457409;32;20515;-80
2023/12/29 11:16:21;;;;;;;;;;;;;;;18.09;41.33;98229.66;4457075;32;19984;-79
2023/12/29 11:18:50;;;;;;;;;;;;;;;18.18;41.35;98217.69;4458274;32;20028;-79
2023/12/29 11:21:17;;;;;;;;;;;;;;;17.78;41.70;98209.25;4459558;32;19960;-80
2023/12/29 11:23:43;;;;;;;;;;;;;;;17.75;41.24;98209.44;4458853;32;20033;-80
2023/12/29 11:26:10;;;;;;;;;;;;;;;17.34;41.08;98205.25;4473250;32;20033;-79
2023/12/29 11:28:37;;;;;;;;;;;;;;;17.23;41.58;98208.59;4473413;32;20680;-79
2023/12/29 11:31:03;;;;;;;;;;;;;;;17.40;41.73;98212.66;4472918;32;20039;-79
2023/12/29 11:33:31;;;;;;;;;;;;;;;17.68;40.75;98210.78;4473247;32;19977;-79
2023/12/29 11:36:01;;;;;;;;;;;;;;;17.68;40.09;98203.78;4459304;32;20037;-79
2023/12/29 11:38:41;;;;;;;;;;;;;;;17.85;39.58;98200.03;4472956;32;19982;-79
2023/12/29 11:41:08;;;;;;;;;;;;;;;18.32;39.08;98201.91;4459436;32;19984;-79
2023/12/29 11:43:35;;;;;;;;;;;;;;;18.52;38.63;98203.06;4472911;32;20621;-79
2023/12/29 11:46:02;;;;;;;;;;;;;;;18.53;38.19;98204.75;4473041;32;19972;-79
2023/12/29 11:48:47;;;;;;;;;;;;;;;18.64;38.67;98203.97;4473288;32;20325;-80
2023/12/29 11:51:33;;;;;;;;;;;;;;;19.44;37.73;98196.25;4472904;32;20044;-80
2023/12/29 11:54:00;;;;;;;;;;;;;;;19.15;38.28;98203.69;4459091;32;20374;-79
2023/12/29 11:56:34;;;;;;;;;;;;;;;19.03;38.74;98202.81;4473123;32;19972;-79
2023/12/29 11:59:13;;;;;;;;;;;;;;;18.67;40.09;98211.59;4472922;32;19973;-79
2023/12/29 12:01:40;;;;;;;;;;;;;;;18.18;41.70;98207.25;4473206;32;20550;-79
2023/12/29 12:04:25;;;;;;;;;;;;;;;18.47;42.31;98205.16;4472667;32;19976;-79
2023/12/29 12:06:54;;;;;;;;;;;;;;;18.25;43.13;98198.03;4472855;32;19976;-79
2023/12/29 12:09:27;;;;;;;;;;;;;;;17.79;44.56;98193.47;4473235;32;19994;-79
2023/12/29 12:11:54;;;;;;;;;;;;;;;17.82;45.44;98197.63;4472770;32;20036;-79
2023/12/29 12:14:39;;;;;;;;;;;;;;;18.11;44.53;98185.97;4473011;32;20007;-80
2023/12/29 12:17:06;;;;;;;;;;;;;;;17.99;44.90;98192.06;4472974;32;19980;-79
2023/12/29 12:19:35;;;;;;;;;;;;;;;18.14;43.70;98196.19;4458747;32;19968;-79
2023/12/29 12:22:02;;;;;;;;;;;;;;;17.59;44.14;98202.63;4473069;32;20017;-79
2023/12/29 12:24:28;;;;;;;;;;;;;;;17.53;44.82;98202.22;4472961;32;19972;-79
2023/12/29 12:26:55;;;;;;;;;;;;;;;18.13;44.93;98196.31;4458438;32;19992;-79
2023/12/29 12:29:22;;;;;;;;;;;;;;;17.44;46.96;98195.00;4472965;32;19971;-79
2023/12/29 12:31:55;;;;;;;;;;;;;;;17.35;46.51;98188.69;4472813;32;19980;-79
2023/12/29 12:34:21;;;;;;;;;;;;;;;16.87;47.69;98174.53;4458584;32;19980;-79
2023/12/29 12:36:51;;;;;;;;;;;;;;;17.03;47.57;98176.03;4472706;32;19992;-79
2023/12/29 12:39:17;;;;;;;;;;;;;;;17.39;45.62;98177.09;4458893;32;20438;-79
2023/12/29 12:41:44;;;;;;;;;;;;;;;17.38;45.14;98185.84;4458565;32;19960;-79
2023/12/29 12:44:12;;;;;;;;;;;;;;;17.24;45.44;98175.53;4458735;32;20029;-79
2023/12/29 12:46:49;;;;;;;;;;;;;;;17.07;45.56;98171.44;4472347;32;20000;-79
2023/12/29 12:49:16;;;;;;;;;;;;;;;16.80;45.79;98168.03;4472919;32;20663;-79